Time;durP1;ratioP1;P1;durP2;ratioP2;P2;SDS_P1;SDS_P2;PMS_P1;PMS_P2;Temp;Humidity;BMP_temperature;BMP_pressure;BME280_temperature;BME280_humidity;BME280_pressure;Samples;Min_cycle;Max_cycle;Signal;HPM_P1;HPM_P2
2022/11/29 00:01:14;;;;;;;31.48;16.58;;;3.70;99.60;;;;;;5028317;28;20171;-73
2022/11/29 00:03:40;;;;;;;32.50;17.33;;;3.80;99.60;;;;;;5024073;28;20409;-73
2022/11/29 00:06:07;;;;;;;40.00;17.38;;;3.80;99.60;;;;;;5027127;28;20076;-73
2022/11/29 00:08:34;;;;;;;29.00;16.17;;;3.80;99.60;;;;;;5026999;28;20049;-73
2022/11/29 00:11:09;;;;;;;28.13;16.55;;;3.80;99.60;;;;;;5028287;28;20044;-73
2022/11/29 00:13:34;;;;;;;34.10;17.38;;;3.80;99.60;;;;;;5013060;28;20033;-73
2022/11/29 00:16:09;;;;;;;32.08;15.32;;;3.80;99.60;;;;;;5034261;28;20410;-74
2022/11/29 00:18:35;;;;;;;32.50;16.85;;;3.80;99.60;;;;;;5023600;28;20036;-73
2022/11/29 00:21:07;;;;;;;32.72;16.25;;;3.80;99.60;;;;;;5017272;28;20033;-73
2022/11/29 00:23:34;;;;;;;32.58;16.65;;;3.80;99.60;;;;;;5022997;28;20408;-74
2022/11/29 00:26:07;;;;;;;30.67;17.02;;;3.80;99.60;;;;;;5028190;28;20107;-73
2022/11/29 00:28:34;;;;;;;30.42;16.20;;;3.80;99.60;;;;;;5027284;28;20037;-74
2022/11/29 00:30:59;;;;;;;27.58;15.50;;;3.80;99.60;;;;;;5028528;28;20029;-74
2022/11/29 00:33:25;;;;;;;33.55;16.48;;;3.80;99.60;;;;;;5023179;28;20029;-74
2022/11/29 00:35:51;;;;;;;31.25;16.30;;;3.80;99.60;;;;;;5029162;28;20045;-74
2022/11/29 00:38:16;;;;;;;31.45;16.98;;;3.80;99.60;;;;;;5021745;28;20017;-74
2022/11/29 00:40:42;;;;;;;29.20;16.92;;;3.80;99.60;;;;;;5030238;28;20057;-74
2022/11/29 00:43:07;;;;;;;30.95;16.88;;;3.80;99.50;;;;;;5032446;28;20033;-74
2022/11/29 00:45:33;;;;;;;30.90;16.48;;;3.80;99.60;;;;;;5024084;28;20410;-74
2022/11/29 00:47:58;;;;;;;31.27;15.45;;;3.80;99.60;;;;;;5028747;28;20037;-74
2022/11/29 00:50:24;;;;;;;28.38;16.00;;;3.80;99.60;;;;;;5023882;28;20026;-74
2022/11/29 00:52:49;;;;;;;29.42;16.20;;;3.80;99.60;;;;;;5037939;28;20520;-74
2022/11/29 00:55:15;;;;;;;28.10;14.90;;;3.80;99.60;;;;;;5025851;28;20465;-74
2022/11/29 00:57:40;;;;;;;35.17;17.20;;;3.80;99.60;;;;;;5027189;28;20029;-74
2022/11/29 01:00:06;;;;;;;31.23;16.05;;;3.80;99.50;;;;;;5024768;28;20046;-74
2022/11/29 01:02:32;;;;;;;28.10;15.95;;;3.80;99.60;;;;;;5018964;28;20034;-74
2022/11/29 01:04:57;;;;;;;31.50;17.27;;;3.80;99.60;;;;;;5027027;28;20065;-74
2022/11/29 01:07:23;;;;;;;28.80;16.25;;;3.80;99.60;;;;;;5029200;28;20050;-74
2022/11/29 01:09:48;;;;;;;35.55;18.15;;;3.80;99.60;;;;;;5035074;28;20104;-74
2022/11/29 01:12:14;;;;;;;35.42;16.88;;;3.80;99.60;;;;;;5013545;28;20421;-74
2022/11/29 01:14:39;;;;;;;32.67;17.10;;;3.90;99.60;;;;;;5036537;28;20026;-74
2022/11/29 01:17:04;;;;;;;33.60;17.60;;;3.80;99.50;;;;;;5030166;28;20071;-74
2022/11/29 01:19:30;;;;;;;35.38;16.80;;;3.80;99.50;;;;;;5028755;28;20132;-74
2022/11/29 01:21:55;;;;;;;33.08;17.67;;;3.80;99.50;;;;;;5032782;28;20068;-74
2022/11/29 01:24:21;;;;;;;32.75;16.55;;;3.80;99.40;;;;;;5017190;28;20081;-74
2022/11/29 01:26:47;;;;;;;36.58;17.38;;;3.80;99.50;;;;;;5032134;28;20144;-75
2022/11/29 01:29:13;;;;;;;30.45;17.63;;;3.80;99.40;;;;;;5027386;28;20524;-74
2022/11/29 01:31:38;;;;;;;33.70;16.65;;;3.80;99.50;;;;;;5026718;28;20021;-74
2022/11/29 01:34:05;;;;;;;38.28;17.55;;;3.80;99.40;;;;;;5024773;28;20032;-74
2022/11/29 01:36:32;;;;;;;32.50;17.95;;;3.80;99.40;;;;;;5026376;28;20030;-75
2022/11/29 01:38:59;;;;;;;28.85;15.48;;;3.80;99.40;;;;;;5031391;28;20396;-74
2022/11/29 01:41:27;;;;;;;32.15;17.70;;;3.80;99.40;;;;;;5034859;28;20028;-74
2022/11/29 01:44:02;;;;;;;31.58;17.30;;;3.80;99.40;;;;;;5021377;28;20033;-74
2022/11/29 01:46:33;;;;;;;31.90;17.98;;;3.80;99.40;;;;;;5025196;28;20029;-74
2022/11/29 01:49:13;;;;;;;33.15;17.65;;;3.80;99.40;;;;;;5032245;28;20104;-74
2022/11/29 01:51:42;;;;;;;33.47;16.80;;;3.80;99.40;;;;;;5028006;28;20101;-74
2022/11/29 01:54:09;;;;;;;36.65;19.23;;;3.80;99.40;;;;;;5031532;28;20076;-74
2022/11/29 01:56:36;;;;;;;34.35;17.50;;;3.80;99.40;;;;;;5028533;28;20037;-74
2022/11/29 01:59:06;;;;;;;31.42;16.98;;;3.80;99.40;;;;;;5029533;28;20319;-73
2022/11/29 02:01:33;;;;;;;30.65;17.27;;;3.80;99.30;;;;;;5026426;28;20037;-74
2022/11/29 02:03:58;;;;;;;30.77;17.20;;;3.80;99.30;;;;;;5023592;28;20098;-74
2022/11/29 02:06:25;;;;;;;32.72;17.02;;;3.80;99.40;;;;;;5039424;28;20451;-74
2022/11/29 02:08:52;;;;;;;34.70;18.40;;;3.80;99.40;;;;;;5031303;28;20120;-74
2022/11/29 02:11:40;;;;;;;30.45;17.73;;;3.80;99.40;;;;;;5032766;28;20041;-74
2022/11/29 02:14:25;;;;;;;31.65;17.05;;;3.80;99.30;;;;;;5030847;28;20020;-74
2022/11/29 02:17:17;;;;;;;30.45;17.15;;;3.70;99.30;;;;;;5028063;28;20120;-73
2022/11/29 02:20:13;;;;;;;35.28;18.95;;;3.70;99.40;;;;;;5038296;28;20049;-74
2022/11/29 02:23:16;;;;;;;32.85;17.30;;;3.70;99.30;;;;;;5023975;28;20187;-74
2022/11/29 02:26:00;;;;;;;29.23;16.77;;;3.70;99.40;;;;;;5023790;28;20029;-74
2022/11/29 02:28:44;;;;;;;32.63;17.13;;;3.70;99.40;;;;;;5028535;28;20041;-74
2022/11/29 02:31:44;;;;;;;30.75;17.65;;;3.70;99.50;;;;;;5028993;28;20021;-75
2022/11/29 02:34:09;;;;;;;35.25;18.15;;;3.70;99.50;;;;;;5025676;28;20026;-74
2022/11/29 02:36:57;;;;;;;39.92;18.45;;;3.70;99.50;;;;;;5031257;28;20131;-74
2022/11/29 02:39:36;;;;;;;34.67;17.90;;;3.70;99.50;;;;;;5038384;28;20033;-74
2022/11/29 02:42:47;;;;;;;34.92;18.00;;;3.70;99.50;;;;;;5024169;28;20061;-74
2022/11/29 02:45:50;;;;;;;39.65;18.27;;;3.70;99.50;;;;;;5020263;28;20064;-74
2022/11/29 02:48:31;;;;;;;39.65;19.10;;;3.60;99.60;;;;;;5027191;28;20109;-74
2022/11/29 02:51:03;;;;;;;41.10;19.33;;;3.60;99.60;;;;;;5022454;28;20040;-74
2022/11/29 02:54:02;;;;;;;43.63;19.90;;;3.60;99.60;;;;;;5029740;28;20040;-74
2022/11/29 02:56:51;;;;;;;36.58;19.25;;;3.60;99.60;;;;;;5025820;28;20048;-74
2022/11/29 02:59:41;;;;;;;35.47;19.88;;;3.70;99.70;;;;;;5029431;28;20056;-74
2022/11/29 03:02:20;;;;;;;44.93;21.57;;;3.70;99.70;;;;;;5018577;28;20029;-74
2022/11/29 03:05:08;;;;;;;44.85;20.65;;;3.70;99.70;;;;;;5030094;28;20029;-74
2022/11/29 03:07:45;;;;;;;36.47;19.90;;;3.60;99.70;;;;;;5024612;28;20132;-75
2022/11/29 03:10:32;;;;;;;35.65;18.38;;;3.70;99.70;;;;;;5029822;28;20119;-74
2022/11/29 03:13:00;;;;;;;44.50;21.88;;;3.70;99.70;;;;;;5028798;28;20042;-74
2022/11/29 03:15:43;;;;;;;45.20;21.70;;;3.70;99.80;;;;;;5031665;28;20073;-74
2022/11/29 03:18:34;;;;;;;44.28;20.73;;;3.70;99.80;;;;;;5025952;28;20044;-74
2022/11/29 03:21:21;;;;;;;48.47;21.73;;;3.60;99.70;;;;;;5029173;28;20315;-74
2022/11/29 03:23:53;;;;;;;42.42;21.13;;;3.60;99.70;;;;;;5027588;28;20075;-74
2022/11/29 03:26:36;;;;;;;48.33;22.85;;;3.60;99.80;;;;;;5025624;28;20059;-74
2022/11/29 03:29:07;;;;;;;47.83;23.40;;;3.60;99.80;;;;;;5027206;28;20123;-74
2022/11/29 03:31:41;;;;;;;50.30;23.13;;;3.60;99.80;;;;;;5030227;28;20049;-74
2022/11/29 03:34:38;;;;;;;47.85;22.60;;;3.60;99.80;;;;;;5022379;28;20029;-74
2022/11/29 03:37:20;;;;;;;47.58;22.00;;;3.60;99.80;;;;;;5028387;28;20127;-74
2022/11/29 03:40:07;;;;;;;46.22;20.95;;;3.60;99.80;;;;;;5032632;28;20040;-74
2022/11/29 03:42:43;;;;;;;47.40;22.65;;;3.60;99.80;;;;;;5030795;28;20331;-74
2022/11/29 03:45:33;;;;;;;57.05;24.42;;;3.60;99.80;;;;;;5022079;28;20034;-74
2022/11/29 03:48:10;;;;;;;47.22;21.75;;;3.60;99.90;;;;;;5014426;28;20115;-75
2022/11/29 03:50:44;;;;;;;47.08;23.02;;;3.70;99.90;;;;;;5029877;28;20061;-75
2022/11/29 03:53:32;;;;;;;48.90;23.15;;;3.70;99.90;;;;;;5037153;28;20460;-74
2022/11/29 03:55:59;;;;;;;50.20;24.23;;;3.60;99.90;;;;;;5025430;28;20024;-74
2022/11/29 03:58:33;;;;;;;47.08;23.58;;;3.60;99.90;;;;;;5028937;28;20038;-74
2022/11/29 04:01:28;;;;;;;50.72;25.17;;;3.70;99.90;;;;;;5034084;28;20604;-75
2022/11/29 04:04:31;;;;;;;49.65;23.33;;;3.70;99.90;;;;;;5023706;28;20127;-74
2022/11/29 04:07:34;;;;;;;55.20;25.70;;;3.70;99.90;;;;;;5030346;28;20414;-74
2022/11/29 04:10:36;;;;;;;53.58;23.95;;;3.70;99.90;;;;;;5028007;28;20405;-74
2022/11/29 04:13:29;;;;;;;51.95;24.65;;;3.70;99.90;;;;;;5034080;28;20033;-74
2022/11/29 04:16:33;;;;;;;53.42;25.20;;;3.70;99.90;;;;;;5032730;28;20048;-74
2022/11/29 04:19:21;;;;;;;52.78;24.73;;;3.70;99.90;;;;;;4983197;28;20034;-74
2022/11/29 04:22:09;;;;;;;55.58;26.38;;;3.70;99.90;;;;;;5030139;28;20500;-75
2022/11/29 04:25:03;;;;;;;47.13;24.42;;;3.70;99.90;;;;;;5026947;28;20121;-74
2022/11/29 04:27:52;;;;;;;52.22;24.88;;;3.70;99.90;;;;;;5022972;28;20029;-73
2022/11/29 04:30:24;;;;;;;55.03;25.75;;;3.70;99.90;;;;;;5025130;28;20103;-74
2022/11/29 04:33:00;;;;;;;54.10;26.17;;;3.70;99.90;;;;;;5025074;28;20319;-74
2022/11/29 04:35:39;;;;;;;59.40;27.30;;;3.70;99.90;;;;;;5025669;28;20356;-74
2022/11/29 04:38:36;;;;;;;57.05;25.58;;;3.70;99.90;;;;;;5018507;28;20363;-74
2022/11/29 04:41:26;;;;;;;56.88;25.83;;;3.70;99.90;;;;;;5021533;28;20025;-74
2022/11/29 04:44:18;;;;;;;62.92;26.52;;;3.70;99.90;;;;;;5021109;28;20030;-74
2022/11/29 04:47:13;;;;;;;63.17;27.55;;;3.70;99.90;;;;;;5028870;28;20044;-74
2022/11/29 04:49:51;;;;;;;56.97;25.58;;;3.70;99.90;;;;;;5027561;28;20079;-74
2022/11/29 04:52:49;;;;;;;61.47;26.42;;;3.70;99.90;;;;;;5029153;28;20377;-74
2022/11/29 04:55:51;;;;;;;55.97;26.88;;;3.70;99.90;;;;;;5017471;28;20391;-75
2022/11/29 04:58:52;;;;;;;56.00;27.52;;;3.70;99.90;;;;;;5031333;28;20488;-74
2022/11/29 05:01:38;;;;;;;55.88;27.08;;;3.70;99.90;;;;;;5032092;28;20346;-74
2022/11/29 05:04:15;;;;;;;61.17;27.90;;;3.70;99.90;;;;;;5031227;28;20112;-75
2022/11/29 05:07:04;;;;;;;68.32;28.85;;;3.60;99.90;;;;;;5027926;28;20033;-74
2022/11/29 05:10:12;;;;;;;63.65;28.83;;;3.60;99.90;;;;;;5028237;28;20282;-74
2022/11/29 05:13:00;;;;;;;57.17;28.33;;;3.60;99.90;;;;;;5027149;28;20034;-74
2022/11/29 05:15:57;;;;;;;63.75;28.77;;;3.70;99.90;;;;;;5030852;28;20437;-74
2022/11/29 05:18:54;;;;;;;69.75;27.90;;;3.60;99.90;;;;;;5032355;28;20049;-73
2022/11/29 05:21:42;;;;;;;63.17;28.58;;;3.60;99.90;;;;;;5033556;28;20144;-74
2022/11/29 05:24:23;;;;;;;67.28;28.10;;;3.60;99.90;;;;;;5029744;28;20057;-74
2022/11/29 05:27:00;;;;;;;70.03;28.17;;;3.60;99.90;;;;;;5034585;28;20025;-73
2022/11/29 05:29:44;;;;;;;65.07;29.00;;;3.60;99.80;;;;;;5027418;28;20049;-73
2022/11/29 05:32:27;;;;;;;67.18;30.50;;;3.60;99.90;;;;;;5025111;28;20504;-71
2022/11/29 05:35:02;;;;;;;68.60;30.67;;;3.60;99.90;;;;;;5029516;28;20029;-75
2022/11/29 05:37:47;;;;;;;68.28;29.52;;;3.60;99.90;;;;;;5026853;28;20036;-70
2022/11/29 05:40:39;;;;;;;63.53;29.10;;;3.60;99.90;;;;;;5027095;28;20042;-72
2022/11/29 05:43:16;;;;;;;65.75;29.25;;;3.60;99.80;;;;;;5035102;28;20056;-70
2022/11/29 05:46:05;;;;;;;61.75;29.23;;;3.60;99.80;;;;;;5034329;28;20029;-70
2022/11/29 05:48:57;;;;;;;67.95;28.58;;;3.60;99.80;;;;;;5030472;28;20034;-71
2022/11/29 05:51:39;;;;;;;65.50;28.75;;;3.60;99.90;;;;;;5025688;28;20048;-70
2022/11/29 05:54:07;;;;;;;57.22;28.45;;;3.60;99.80;;;;;;5040394;28;20342;-71
2022/11/29 05:56:51;;;;;;;73.78;29.75;;;3.60;99.80;;;;;;5027809;28;20092;-73
2022/11/29 05:59:26;;;;;;;61.95;28.00;;;3.60;99.80;;;;;;5023398;28;20028;-72
2022/11/29 06:02:14;;;;;;;59.08;28.83;;;3.60;99.80;;;;;;5024841;28;20018;-71
2022/11/29 06:04:50;;;;;;;67.13;29.20;;;3.60;99.80;;;;;;5027085;28;20612;-71
2022/11/29 06:07:23;;;;;;;66.43;29.83;;;3.60;99.80;;;;;;5023912;28;20101;-73
2022/11/29 06:10:10;;;;;;;64.78;28.92;;;3.60;99.80;;;;;;5021967;28;20118;-70
2022/11/29 06:12:36;;;;;;;66.28;28.95;;;3.60;99.80;;;;;;5025036;28;20026;-71
2022/11/29 06:15:39;;;;;;;67.72;29.40;;;3.60;99.80;;;;;;5021161;28;20026;-71
2022/11/29 06:18:11;;;;;;;58.28;27.75;;;3.60;99.80;;;;;;5020980;28;20066;-71
2022/11/29 06:20:50;;;;;;;71.07;30.30;;;3.60;99.80;;;;;;5023223;28;20102;-71
2022/11/29 06:23:35;;;;;;;67.82;30.13;;;3.60;99.80;;;;;;5026915;28;20109;-71
2022/11/29 06:26:06;;;;;;;67.68;29.83;;;3.60;99.80;;;;;;5040667;28;20036;-71
2022/11/29 06:29:00;;;;;;;64.30;27.95;;;3.60;99.80;;;;;;5021379;28;20435;-71
2022/11/29 06:31:37;;;;;;;66.75;27.38;;;3.60;99.80;;;;;;5024257;28;20348;-71
2022/11/29 06:34:08;;;;;;;71.25;30.05;;;3.60;99.80;;;;;;5023456;28;20033;-72
2022/11/29 06:36:55;;;;;;;62.72;29.90;;;3.60;99.80;;;;;;5026235;28;20032;-73
2022/11/29 06:39:21;;;;;;;66.95;28.52;;;3.60;99.80;;;;;;5032594;28;20040;-71
2022/11/29 06:41:47;;;;;;;69.00;31.90;;;3.60;99.80;;;;;;5037305;28;20053;-70
2022/11/29 06:44:13;;;;;;;71.15;29.98;;;3.60;99.80;;;;;;5024885;28;20468;-72
2022/11/29 06:46:56;;;;;;;63.85;30.65;;;3.60;99.80;;;;;;5027787;28;20030;-70
2022/11/29 06:49:40;;;;;;;65.00;29.10;;;3.50;99.80;;;;;;5027124;28;20465;-71
2022/11/29 06:52:27;;;;;;;59.65;29.25;;;3.60;99.80;;;;;;5024815;28;20038;-70
2022/11/29 06:55:10;;;;;;;61.08;29.15;;;3.50;99.80;;;;;;5028161;28;20046;-73
2022/11/29 06:57:50;;;;;;;73.95;30.13;;;3.50;99.80;;;;;;5027036;28;20030;-70
2022/11/29 07:00:22;;;;;;;61.47;30.35;;;3.50;99.70;;;;;;5014626;28;20109;-71
2022/11/29 07:03:25;;;;;;;70.97;30.48;;;3.50;99.80;;;;;;5026134;28;20044;-70
2022/11/29 07:05:51;;;;;;;65.45;29.27;;;3.60;99.80;;;;;;5018648;28;20046;-71
2022/11/29 07:08:22;;;;;;;66.55;30.50;;;3.60;99.80;;;;;;5019983;28;20037;-70
2022/11/29 07:10:49;;;;;;;;;;;3.50;99.80;;;;;;5023127;28;20033;-73
2022/11/29 07:13:16;;;;;;;71.10;29.15;;;3.60;99.80;;;;;;5022413;28;19981;-73
2022/11/29 07:15:52;;;;;;;65.28;28.88;;;3.50;99.80;;;;;;5033258;28;20036;-70
2022/11/29 07:18:45;;;;;;;70.00;30.85;;;3.50;99.80;;;;;;5025841;28;20738;-71
2022/11/29 07:21:41;;;;;;;69.88;31.13;;;3.60;99.80;;;;;;5014618;28;20022;-70
2022/11/29 07:24:40;;;;;;;69.03;29.75;;;3.60;99.80;;;;;;5017880;28;20050;-71
2022/11/29 07:27:24;;;;;;;71.00;30.38;;;3.50;99.70;;;;;;5024701;28;20020;-72
2022/11/29 07:29:55;;;;;;;66.75;29.63;;;3.50;99.80;;;;;;5027033;28;20066;-71
2022/11/29 07:33:02;;;;;;;74.47;29.92;;;3.60;99.80;;;;;;5030963;28;20042;-71
2022/11/29 07:35:41;;;;;;;69.18;30.20;;;3.50;99.80;;;;;;5025877;28;20434;-71
2022/11/29 07:38:24;;;;;;;68.28;29.52;;;3.60;99.70;;;;;;5044335;28;20465;-71
2022/11/29 07:40:59;;;;;;;74.35;29.75;;;3.60;99.80;;;;;;5019650;28;20152;-70
2022/11/29 07:43:47;;;;;;;81.32;33.80;;;3.60;99.80;;;;;;5021942;28;20033;-71
2022/11/29 07:46:13;;;;;;;68.45;31.02;;;3.60;99.70;;;;;;5032785;28;20075;-72
2022/11/29 07:48:38;;;;;;;67.40;29.90;;;3.50;99.70;;;;;;5027991;28;20037;-70
2022/11/29 07:51:04;;;;;;;76.15;32.80;;;3.50;99.70;;;;;;5028213;28;20017;-71
2022/11/29 07:53:30;;;;;;;74.65;33.08;;;3.50;99.70;;;;;;5031660;28;20393;-71
2022/11/29 07:55:56;;;;;;;66.68;32.13;;;3.60;99.70;;;;;;5023314;28;20052;-70
2022/11/29 07:58:22;;;;;;;73.97;32.47;;;3.60;99.70;;;;;;5025711;28;20449;-74
2022/11/29 08:00:47;;;;;;;77.45;35.65;;;3.60;99.70;;;;;;5019741;28;20104;-72
2022/11/29 08:03:13;;;;;;;72.72;30.70;;;3.60;99.60;;;;;;5024053;28;20697;-73
2022/11/29 08:05:39;;;;;;;65.07;31.58;;;3.50;99.60;;;;;;5016968;28;20036;-71
2022/11/29 08:08:05;;;;;;;67.18;31.95;;;3.50;99.60;;;;;;5028328;28;20043;-71
2022/11/29 08:10:31;;;;;;;78.80;31.63;;;3.50;99.60;;;;;;5027748;28;20041;-71
2022/11/29 08:12:56;;;;;;;71.15;29.85;;;3.60;99.70;;;;;;5027421;28;20111;-70
2022/11/29 08:15:24;;;;;;;74.70;31.92;;;3.50;99.60;;;;;;5026811;28;20029;-71
2022/11/29 08:17:49;;;;;;;78.32;32.85;;;3.60;99.70;;;;;;5033100;28;20378;-71
2022/11/29 08:20:15;;;;;;;64.82;30.45;;;3.60;99.60;;;;;;5028413;28;20117;-71
2022/11/29 08:22:41;;;;;;;72.72;31.27;;;3.60;99.70;;;;;;5036495;28;20385;-71
2022/11/29 08:25:08;;;;;;;71.05;32.17;;;3.60;99.70;;;;;;5036020;28;20025;-71
2022/11/29 08:27:35;;;;;;;70.25;29.75;;;3.60;99.70;;;;;;5026446;28;20120;-71
2022/11/29 08:30:01;;;;;;;69.35;31.23;;;3.70;99.70;;;;;;5029410;28;20026;-71
2022/11/29 08:32:26;;;;;;;71.05;32.97;;;3.70;99.70;;;;;;5037118;28;20091;-71
2022/11/29 08:34:52;;;;;;;77.93;32.28;;;3.70;99.70;;;;;;5031170;28;20473;-73
2022/11/29 08:37:17;;;;;;;75.22;32.08;;;3.70;99.70;;;;;;5030320;28;20372;-71
2022/11/29 08:39:43;;;;;;;72.85;31.35;;;3.70;99.70;;;;;;5047600;28;20024;-71
2022/11/29 08:42:08;;;;;;;76.22;32.78;;;3.80;99.70;;;;;;5036449;28;20121;-72
2022/11/29 08:44:34;;;;;;;72.43;32.42;;;3.60;99.50;;;;;;5035540;28;20037;-71
2022/11/29 08:50:02;;;;;;;82.10;32.20;;;3.70;99.70;;;;;;5040705;28;20027;-70
2022/11/29 08:55:18;;;;;;;78.20;32.35;;;3.80;99.60;;;;;;5033913;28;20083;-70
2022/11/29 08:57:45;;;;;;;77.00;32.95;;;3.70;99.50;;;;;;5033605;28;20348;-71
2022/11/29 09:00:11;;;;;;;77.95;33.05;;;3.70;99.50;;;;;;5034368;28;20565;-70
2022/11/29 09:02:37;;;;;;;75.38;34.22;;;3.80;99.60;;;;;;5047249;28;20093;-70
2022/11/29 09:05:04;;;;;;;77.25;33.50;;;3.70;99.40;;;;;;5031972;28;20441;-70
2022/11/29 09:07:30;;;;;;;77.57;32.17;;;3.90;99.70;;;;;;5019662;28;20029;-72
2022/11/29 09:09:55;;;;;;;76.63;33.78;;;3.90;99.50;;;;;;5035245;28;20037;-71
2022/11/29 09:12:21;;;;;;;70.20;33.03;;;3.90;99.50;;;;;;5041755;28;20101;-70
2022/11/29 09:14:46;;;;;;;85.10;33.03;;;3.90;99.60;;;;;;5036883;28;20080;-74
2022/11/29 09:17:12;;;;;;;76.20;32.45;;;3.90;99.40;;;;;;5038680;28;20463;-70
2022/11/29 09:19:37;;;;;;;77.60;33.75;;;4.00;99.60;;;;;;5043187;28;20028;-70
2022/11/29 09:22:02;;;;;;;77.30;31.52;;;3.90;99.50;;;;;;5039363;28;20048;-71
2022/11/29 09:24:28;;;;;;;73.82;33.35;;;4.00;99.50;;;;;;5038783;28;20361;-70
2022/11/29 09:26:53;;;;;;;72.78;32.70;;;3.90;99.30;;;;;;5029495;28;20029;-71
2022/11/29 09:29:19;;;;;;;69.85;31.02;;;4.00;99.40;;;;;;5035551;28;20339;-70
2022/11/29 09:31:44;;;;;;;81.18;33.47;;;3.90;99.40;;;;;;5032104;28;20470;-70
2022/11/29 09:34:14;;;;;;;70.22;32.85;;;4.00;99.50;;;;;;5033934;28;20417;-70
2022/11/29 09:36:40;;;;;;;67.28;32.20;;;4.00;99.30;;;;;;5034235;28;20026;-71
2022/11/29 09:39:05;;;;;;;71.82;32.33;;;4.00;99.40;;;;;;5029348;28;20037;-70
2022/11/29 09:41:41;;;;;;;67.43;31.00;;;4.00;99.30;;;;;;5026633;28;20091;-72
2022/11/29 09:44:39;;;;;;;71.05;32.55;;;4.00;99.30;;;;;;5026881;28;20042;-71
2022/11/29 09:47:24;;;;;;;68.40;32.15;;;4.10;99.40;;;;;;5032774;28;20473;-70
2022/11/29 09:50:02;;;;;;;70.18;31.60;;;4.10;99.20;;;;;;5034718;28;20039;-71
2022/11/29 09:52:36;;;;;;;75.85;32.55;;;4.10;99.30;;;;;;5028183;28;20159;-70
2022/11/29 09:55:43;;;;;;;63.90;31.45;;;4.10;99.20;;;;;;5025210;28;20115;-70
2022/11/29 09:58:14;;;;;;;67.75;30.40;;;4.10;99.10;;;;;;5024879;28;20152;-70
2022/11/29 10:00:48;;;;;;;72.20;32.10;;;4.10;99.10;;;;;;5022258;28;20604;-70
2022/11/29 10:03:29;;;;;;;66.97;30.50;;;4.10;99.20;;;;;;5016731;28;20060;-70
2022/11/29 10:06:01;;;;;;;67.68;30.60;;;4.10;99.10;;;;;;5029039;28;20091;-71
2022/11/29 10:08:31;;;;;;;58.15;30.92;;;4.10;99.10;;;;;;5017794;28;20044;-70
2022/11/29 10:11:11;;;;;;;60.30;31.63;;;4.10;99.00;;;;;;5017979;28;20052;-70
2022/11/29 10:13:43;;;;;;;62.53;30.95;;;4.10;99.10;;;;;;5013627;28;20310;-73
2022/11/29 10:16:32;;;;;;;69.57;31.63;;;4.10;99.00;;;;;;5024913;28;20045;-71
2022/11/29 10:19:04;;;;;;;69.63;30.20;;;4.20;99.10;;;;;;5035334;28;20030;-71
2022/11/29 10:21:35;;;;;;;64.57;31.00;;;4.20;99.10;;;;;;5030275;28;20132;-72
2022/11/29 10:24:08;;;;;;;62.33;30.75;;;4.10;99.00;;;;;;5031383;28;20330;-70
2022/11/29 10:26:34;;;;;;;58.58;31.80;;;4.20;99.00;;;;;;5027289;28;20026;-75
2022/11/29 10:28:59;;;;;;;62.45;30.15;;;4.30;99.00;;;;;;5025826;28;20040;-71
2022/11/29 10:31:33;;;;;;;59.20;30.38;;;4.40;99.10;;;;;;5023288;28;20046;-71
2022/11/29 10:34:01;;;;;;;68.65;31.50;;;4.40;99.00;;;;;;5029595;28;20048;-71
2022/11/29 10:36:35;;;;;;;70.20;32.40;;;4.20;98.70;;;;;;5034377;28;20473;-72
2022/11/29 10:39:15;;;;;;;63.53;31.05;;;4.10;98.60;;;;;;5026550;28;20112;-71
2022/11/29 10:41:42;;;;;;;62.55;31.25;;;4.30;98.90;;;;;;5031548;28;20025;-71
2022/11/29 10:44:12;;;;;;;66.82;31.98;;;4.30;98.80;;;;;;5034975;28;20021;-72
2022/11/29 10:46:38;;;;;;;59.00;30.33;;;4.30;98.80;;;;;;5033571;28;20050;-71
2022/11/29 10:49:09;;;;;;;65.82;32.13;;;4.40;98.90;;;;;;5030052;28;20064;-70
2022/11/29 10:51:34;;;;;;;66.72;31.70;;;4.40;98.70;;;;;;5027807;28;20041;-72
2022/11/29 10:54:33;;;;;;;62.38;32.75;;;4.50;98.80;;;;;;5028574;28;20139;-70
2022/11/29 10:57:00;;;;;;;51.67;28.50;;;4.50;98.70;;;;;;5024959;28;20112;-71
2022/11/29 10:59:29;;;;;;;63.38;29.80;;;4.50;98.70;;;;;;5030532;28;20128;-72
2022/11/29 11:01:56;;;;;;;62.72;30.38;;;4.50;98.50;;;;;;5027380;28;20033;-71
2022/11/29 11:04:41;;;;;;;61.05;30.65;;;4.50;98.70;;;;;;5032142;28;20137;-70
2022/11/29 11:07:17;;;;;;;63.78;31.95;;;4.60;98.80;;;;;;5017637;28;20026;-71
2022/11/29 11:09:49;;;;;;;65.47;30.13;;;4.60;98.60;;;;;;5017065;28;20453;-71
2022/11/29 11:12:14;;;;;;;55.70;30.25;;;4.50;98.50;;;;;;5028468;28;20323;-71
2022/11/29 11:14:42;;;;;;;60.75;29.98;;;4.60;98.60;;;;;;5041556;28;20032;-70
2022/11/29 11:17:25;;;;;;;57.08;29.27;;;4.70;98.60;;;;;;5028488;28;20438;-71
2022/11/29 11:20:21;;;;;;;60.55;28.40;;;4.60;98.50;;;;;;5019407;28;20113;-72
2022/11/29 11:22:57;;;;;;;58.78;29.10;;;4.50;98.40;;;;;;5020468;28;20338;-71
2022/11/29 11:25:27;;;;;;;60.08;29.83;;;4.50;98.40;;;;;;5018507;28;20112;-72
2022/11/29 11:27:54;;;;;;;59.42;30.05;;;4.60;98.50;;;;;;5028410;28;20093;-72
2022/11/29 11:30:27;;;;;;;52.95;28.20;;;4.60;98.50;;;;;;5026155;28;20171;-72
2022/11/29 11:33:25;;;;;;;62.35;28.05;;;4.60;98.50;;;;;;5035100;28;20113;-71
2022/11/29 11:36:07;;;;;;;54.08;28.80;;;4.60;98.40;;;;;;5027384;28;20022;-71
2022/11/29 11:38:35;;;;;;;58.38;28.95;;;4.70;98.60;;;;;;5015452;28;20097;-71
2022/11/29 11:41:14;;;;;;;54.95;27.30;;;4.60;98.50;;;;;;5026388;28;20037;-70
2022/11/29 11:43:39;;;;;;;56.45;29.23;;;4.60;98.40;;;;;;5025373;28;20485;-70
2022/11/29 11:46:05;;;;;;;51.72;28.80;;;4.60;98.50;;;;;;5028658;28;20026;-71
2022/11/29 11:48:32;;;;;;;59.92;30.05;;;4.60;98.40;;;;;;5026302;28;20042;-70
2022/11/29 11:50:59;;;;;;;56.22;29.20;;;4.60;98.50;;;;;;5031510;28;20429;-70
2022/11/29 11:53:35;;;;;;;56.08;29.00;;;4.70;98.50;;;;;;5027752;28;20029;-70
2022/11/29 11:56:04;;;;;;;62.88;30.58;;;4.60;98.40;;;;;;5034211;28;20116;-70
2022/11/29 11:58:43;;;;;;;57.17;29.00;;;4.60;98.60;;;;;;5022493;28;20128;-69
2022/11/29 12:01:11;;;;;;;62.50;29.35;;;4.60;98.40;;;;;;5023681;28;20372;-70
2022/11/29 12:04:06;;;;;;;55.83;28.98;;;4.60;98.50;;;;;;5020440;28;20076;-70
2022/11/29 12:06:48;;;;;;;52.30;29.30;;;4.60;98.50;;;;;;5030499;28;20028;-70
2022/11/29 12:09:19;;;;;;;54.80;30.02;;;4.60;98.50;;;;;;5023297;28;20053;-72
2022/11/29 12:12:03;;;;;;;;;;;4.60;98.30;;;;;;5016821;28;20139;-70
2022/11/29 12:15:01;;;;;;;54.78;26.17;;;4.60;98.40;;;;;;5023816;28;20257;-70
2022/11/29 12:17:53;;;;;;;55.28;28.65;;;4.70;98.50;;;;;;5041340;28;20021;-71
2022/11/29 12:20:29;;;;;;;57.92;28.88;;;4.70;98.40;;;;;;5042225;28;20020;-70
2022/11/29 12:23:10;;;;;;;58.28;27.27;;;4.60;98.30;;;;;;5028184;28;20056;-71
2022/11/29 12:25:48;;;;;;;55.30;28.67;;;4.50;98.20;;;;;;5035448;28;20053;-72
2022/11/29 12:28:16;;;;;;;59.38;30.27;;;4.50;98.10;;;;;;5021919;28;20037;-72
2022/11/29 12:30:55;;;;;;;57.45;29.23;;;4.60;98.30;;;;;;5029927;28;20061;-71
2022/11/29 12:33:41;;;;;;;53.47;29.10;;;4.60;98.20;;;;;;5017466;28;20037;-71
2022/11/29 12:36:31;;;;;;;54.20;28.75;;;4.60;98.10;;;;;;5020356;28;20021;-71
2022/11/29 12:39:06;;;;;;;54.40;28.30;;;4.60;98.10;;;;;;5023944;28;20095;-72
2022/11/29 12:41:59;;;;;;;57.33;29.00;;;4.60;98.20;;;;;;5030796;28;20032;-72
2022/11/29 12:44:47;;;;;;;51.95;28.92;;;4.60;98.10;;;;;;5026826;28;20044;-72
2022/11/29 12:47:23;;;;;;;56.72;28.73;;;4.70;98.30;;;;;;5024658;28;20140;-72
2022/11/29 12:50:17;;;;;;;57.38;30.05;;;4.70;98.20;;;;;;5028533;28;20321;-73
2022/11/29 12:53:00;;;;;;;60.75;29.83;;;4.80;98.40;;;;;;5028111;28;20125;-71
2022/11/29 12:55:40;;;;;;;59.05;29.27;;;4.90;98.30;;;;;;5022931;28;20303;-73
2022/11/29 12:58:14;;;;;;;58.33;29.40;;;4.90;98.40;;;;;;5024880;28;20100;-71
2022/11/29 13:01:04;;;;;;;56.15;30.83;;;4.90;98.20;;;;;;5028208;28;20030;-71
2022/11/29 13:03:57;;;;;;;54.60;28.77;;;4.80;98.30;;;;;;5022156;28;20038;-72
2022/11/29 13:06:31;;;;;;;55.25;29.63;;;4.90;98.30;;;;;;5021467;28;20030;-71
2022/11/29 13:09:19;;;;;;;53.03;29.98;;;5.00;98.30;;;;;;5028916;28;20351;-71
2022/11/29 13:12:13;;;;;;;55.63;30.00;;;5.00;98.30;;;;;;5024202;28;20037;-71
2022/11/29 13:14:48;;;;;;;55.47;28.95;;;5.00;98.30;;;;;;5028755;28;20024;-71
2022/11/29 13:17:46;;;;;;;54.20;29.88;;;4.80;98.10;;;;;;5026936;28;20413;-73
2022/11/29 13:20:37;;;;;;;57.80;30.48;;;4.80;98.20;;;;;;5034314;28;20025;-72
2022/11/29 13:23:35;;;;;;;55.13;29.90;;;4.80;98.20;;;;;;5022714;28;20053;-71
2022/11/29 13:26:05;;;;;;;52.55;28.20;;;4.80;98.10;;;;;;5024457;28;20108;-71
2022/11/29 13:28:34;;;;;;;55.75;30.75;;;4.80;98.20;;;;;;5022513;28;20111;-70
2022/11/29 13:31:03;;;;;;;60.00;30.42;;;4.80;98.20;;;;;;5025884;28;20040;-71
2022/11/29 13:33:46;;;;;;;52.58;29.13;;;4.70;98.00;;;;;;5028203;28;20025;-72